createdAt,value
2019-04-04T00:02:46.327Z,28.50
2019-04-04T00:05:35.859Z,29.97
2019-04-04T00:08:23.686Z,27.80
2019-04-04T00:11:18.246Z,24.70
2019-04-04T00:14:06.100Z,23.33
2019-04-04T00:16:53.941Z,20.20
2019-04-04T00:19:41.805Z,20.60
2019-04-04T00:22:22.232Z,18.93
2019-04-04T00:25:03.131Z,16.93
2019-04-04T00:27:31.606Z,17.60
2019-04-04T00:30:19.489Z,17.73
2019-04-04T00:32:47.939Z,16.83
2019-04-04T00:35:35.726Z,14.90
2019-04-04T00:38:06.685Z,14.00
2019-04-04T00:40:54.079Z,6.87
2019-04-04T00:43:42.169Z,12.97
2019-04-04T00:46:30.965Z,10.10
2019-04-04T00:49:22.386Z,12.23
2019-04-04T00:52:10.953Z,12.63
2019-04-04T00:54:59.954Z,7.13
2019-04-04T00:57:28.788Z,12.20
2019-04-04T01:00:16.627Z,12.43
2019-04-04T01:02:59.728Z,11.77
2019-04-04T01:05:35.149Z,6.23
2019-04-04T01:08:06.617Z,12.03
2019-04-04T01:10:33.755Z,12.17
2019-04-04T01:13:23.636Z,11.67
2019-04-04T01:16:11.335Z,11.60
2019-04-04T01:18:59.246Z,11.27
2019-04-04T01:21:47.074Z,10.77
2019-04-04T01:24:29.105Z,11.37
2019-04-04T01:26:58.547Z,10.70
2019-04-04T01:29:46.358Z,11.03
2019-04-04T01:32:34.133Z,10.63
2019-04-04T01:35:22.815Z,10.47
2019-04-04T01:37:52.109Z,11.07
2019-04-04T01:40:20.542Z,5.80
2019-04-04T01:43:09.370Z,10.00
2019-04-04T01:45:57.862Z,10.33
2019-04-04T01:48:45.662Z,9.93
2019-04-04T01:51:33.450Z,10.13
2019-04-04T01:54:21.246Z,8.70
2019-04-04T01:57:09.030Z,9.87
2019-04-04T01:59:56.866Z,9.50
2019-04-04T02:02:44.634Z,9.40
2019-04-04T02:05:32.507Z,10.20
2019-04-04T02:08:20.269Z,10.77
2019-04-04T02:11:08.061Z,10.80
2019-04-04T02:13:55.862Z,10.10
2019-04-04T02:16:47.512Z,10.30
2019-04-04T02:19:14.152Z,11.40
2019-04-04T02:21:54.916Z,10.93
2019-04-04T02:24:23.345Z,11.03
2019-04-04T02:27:11.505Z,11.10
2019-04-04T02:30:18.823Z,11.53
2019-04-04T02:33:06.764Z,11.30
2019-04-04T02:35:54.630Z,11.00
2019-04-04T02:38:42.430Z,11.07
2019-04-04T02:41:14.951Z,10.87
2019-04-04T02:44:00.727Z,10.77
2019-04-04T02:46:48.614Z,11.40
2019-04-04T02:49:36.566Z,12.13
2019-04-04T02:52:24.360Z,11.03
2019-04-04T02:55:12.490Z,12.47
2019-04-04T02:58:00.326Z,11.90
2019-04-04T03:00:48.094Z,12.43
2019-04-04T03:03:35.882Z,12.53
2019-04-04T03:06:16.458Z,12.20
2019-04-04T03:08:44.922Z,12.77
2019-04-04T03:11:33.075Z,12.97
2019-04-04T03:14:21.142Z,11.73
2019-04-04T03:17:08.914Z,12.70
2019-04-04T03:19:56.826Z,12.80
2019-04-04T03:22:44.597Z,14.30
2019-04-04T03:25:32.754Z,13.17
2019-04-04T03:28:20.535Z,13.40
2019-04-04T03:31:08.321Z,12.50
2019-04-04T03:33:56.166Z,13.53
2019-04-04T03:36:43.962Z,12.70
2019-04-04T03:39:24.496Z,13.23
2019-04-04T03:42:08.168Z,13.93
2019-04-04T03:44:52.929Z,13.50
2019-04-04T03:47:30.825Z,12.83
2019-04-04T03:50:11.438Z,13.23
2019-04-04T03:52:52.246Z,13.57
2019-04-04T03:55:33.358Z,13.33
2019-04-04T03:58:14.498Z,14.63
2019-04-04T04:00:54.790Z,13.47
2019-04-04T04:03:35.621Z,13.63
2019-04-04T04:06:08.327Z,13.50
2019-04-04T04:08:55.162Z,14.30
2019-04-04T04:11:43.819Z,14.67
2019-04-04T04:14:12.542Z,14.23
2019-04-04T04:17:00.397Z,14.13
2019-04-04T04:19:48.495Z,14.07
2019-04-04T04:22:36.267Z,14.90
2019-04-04T04:25:24.083Z,14.63
2019-04-04T04:28:12.178Z,15.23
2019-04-04T04:30:59.985Z,14.90
2019-04-04T04:33:48.566Z,15.10
2019-04-04T04:36:36.359Z,15.03
2019-04-04T04:39:24.145Z,15.27
2019-04-04T04:42:11.938Z,15.13
2019-04-04T04:44:59.790Z,15.57
2019-04-04T04:47:40.477Z,14.10
2019-04-04T04:50:09.924Z,15.43
2019-04-04T04:52:59.267Z,15.00
2019-04-04T04:55:47.058Z,15.07
2019-04-04T04:58:35.145Z,15.60
2019-04-04T05:01:22.926Z,15.00
2019-04-04T05:06:45.946Z,14.87
2019-04-04T05:09:33.997Z,15.30
2019-04-04T05:12:22.226Z,14.37
2019-04-04T05:15:11.374Z,15.10
2019-04-04T05:17:59.226Z,14.70
2019-04-04T05:20:47.377Z,16.33
2019-04-04T05:23:35.244Z,15.10
2019-04-04T05:29:14.014Z,17.60
2019-04-04T05:32:01.719Z,16.07
2019-04-04T05:37:38.218Z,17.37
2019-04-04T05:40:26.915Z,17.07
2019-04-04T05:43:07.867Z,17.37
2019-04-04T05:45:48.711Z,16.93
2019-04-04T05:48:29.804Z,17.13
2019-04-04T05:51:10.670Z,16.37
2019-04-04T05:53:52.018Z,17.07
2019-04-04T05:56:32.656Z,17.03
2019-04-04T05:59:13.722Z,17.40
2019-04-04T06:01:42.578Z,16.87
2019-04-04T06:04:30.682Z,16.67
2019-04-04T06:07:18.810Z,17.30
2019-04-04T06:10:06.658Z,16.20
2019-04-04T06:12:56.275Z,16.63
2019-04-04T06:15:43.942Z,17.63
2019-04-04T06:18:31.734Z,12.10
2019-04-04T06:21:00.600Z,16.93
2019-04-04T06:23:41.173Z,16.17
2019-04-04T06:26:22.178Z,16.53
2019-04-04T06:29:05.552Z,14.27
2019-04-04T06:31:33.322Z,16.80
2019-04-04T06:34:23.933Z,16.33
2019-04-04T06:37:10.886Z,12.33
2019-04-04T06:39:59.474Z,15.90
2019-04-04T06:42:48.270Z,16.27
2019-04-04T06:45:36.096Z,4.10
2019-04-04T06:48:23.884Z,14.67
2019-04-04T06:51:13.885Z,15.30
2019-04-04T06:54:01.452Z,3.07
2019-04-04T06:56:51.324Z,9.90
2019-04-04T06:59:39.101Z,17.40
2019-04-04T07:02:07.601Z,10.33
2019-04-04T07:04:55.413Z,3.00
2019-04-04T07:07:44.108Z,15.20
2019-04-04T07:10:33.033Z,11.97
2019-04-04T07:13:22.500Z,15.23
2019-04-04T07:16:10.379Z,15.30
2019-04-04T07:18:58.159Z,12.00
2019-04-04T07:21:46.280Z,16.03
2019-04-04T07:24:27.099Z,15.37
2019-04-04T07:27:09.462Z,14.33
2019-04-04T07:29:50.521Z,15.50
2019-04-04T07:32:31.435Z,14.97
2019-04-04T07:35:11.740Z,12.30
2019-04-04T07:37:57.438Z,14.73
2019-04-04T07:40:37.432Z,16.00
2019-04-04T07:43:20.196Z,16.33
2019-04-04T07:46:15.284Z,7.60
2019-04-04T07:48:43.913Z,3.13
2019-04-04T07:51:24.651Z,3.17
2019-04-04T07:54:07.401Z,14.10
2019-04-04T07:56:48.942Z,13.27
2019-04-04T07:59:31.030Z,14.83
2019-04-04T08:02:12.147Z,14.33
2019-04-04T08:04:53.088Z,7.73
2019-04-04T08:07:33.734Z,2.83
2019-04-04T08:10:20.468Z,7.80
2019-04-04T08:12:45.106Z,2.37
2019-04-04T08:15:13.570Z,1.97
2019-04-04T08:18:01.343Z,11.80
2019-04-04T08:20:49.453Z,12.70
2019-04-04T08:23:37.297Z,2.47
2019-04-04T08:26:25.091Z,1.90
2019-04-04T08:29:13.161Z,10.97
2019-04-04T08:32:00.978Z,10.73
2019-04-04T08:34:49.034Z,11.37
2019-04-04T08:37:30.264Z,11.97
2019-04-04T08:40:10.801Z,8.43
2019-04-04T08:42:51.991Z,12.30
2019-04-04T08:45:32.846Z,14.23
2019-04-04T08:48:13.861Z,12.23
2019-04-04T08:50:54.737Z,13.17
2019-04-04T08:53:40.067Z,12.67
2019-04-04T08:56:17.188Z,14.00
2019-04-04T08:58:58.308Z,13.93
2019-04-04T09:01:38.612Z,11.70
2019-04-04T09:04:19.506Z,14.20
2019-04-04T09:07:00.734Z,14.00
2019-04-04T09:09:41.583Z,14.10
2019-04-04T09:12:22.670Z,14.00
2019-04-04T09:15:03.271Z,13.60
2019-04-04T09:17:43.679Z,13.57
2019-04-04T09:20:24.597Z,13.77
2019-04-04T09:23:05.431Z,13.73
2019-04-04T09:28:28.723Z,13.77
2019-04-04T09:31:16.529Z,14.13
2019-04-04T09:34:04.294Z,13.10
2019-04-04T09:36:52.351Z,13.97
2019-04-04T09:39:40.381Z,12.70
2019-04-04T09:42:28.248Z,13.73
2019-04-04T09:45:16.082Z,13.63
2019-04-04T09:47:57.049Z,13.13
2019-04-04T09:50:37.313Z,13.80
2019-04-04T09:53:18.262Z,13.23
2019-04-04T09:55:59.539Z,12.30
2019-04-04T09:58:39.954Z,12.80
2019-04-04T10:01:20.835Z,11.90
2019-04-04T10:04:01.259Z,2.80
2019-04-04T10:06:42.291Z,12.77
2019-04-04T10:09:23.157Z,12.47
2019-04-04T10:12:04.005Z,12.27
2019-04-04T10:14:44.586Z,3.20
2019-04-04T10:17:13.299Z,2.80
2019-04-04T10:20:01.105Z,12.00
2019-04-04T10:22:49.175Z,7.33
2019-04-04T10:25:37.198Z,12.23
2019-04-04T10:28:25.262Z,2.73
2019-04-04T10:31:33.825Z,12.30
2019-04-04T10:34:21.605Z,11.10
2019-04-04T10:37:09.407Z,11.77
2019-04-04T10:39:57.186Z,12.73
2019-04-04T10:42:44.973Z,2.97
2019-04-04T10:45:32.770Z,11.70
2019-04-04T10:48:20.572Z,11.90
2019-04-04T10:51:08.365Z,9.33
2019-04-04T10:53:56.485Z,12.00
2019-04-04T10:56:44.285Z,2.73
2019-04-04T10:59:32.342Z,2.77
2019-04-04T11:02:01.071Z,12.67
2019-04-04T11:04:48.936Z,11.23
2019-04-04T11:07:36.761Z,12.03
2019-04-04T11:10:24.551Z,8.67
2019-04-04T11:12:53.088Z,13.07
2019-04-04T11:15:33.611Z,10.83
2019-04-04T11:18:02.137Z,12.90
2019-04-04T11:20:49.937Z,3.10
2019-04-04T11:23:37.730Z,13.17
2019-04-04T11:26:25.793Z,2.60
2019-04-04T11:29:13.854Z,5.87
2019-04-04T11:31:42.341Z,7.07
2019-04-04T11:34:30.130Z,14.07
2019-04-04T11:37:17.978Z,13.77
2019-04-04T11:40:05.845Z,14.53
2019-04-04T11:42:53.681Z,14.93
2019-04-04T11:45:41.763Z,14.03
2019-04-04T11:48:29.806Z,13.63
2019-04-04T11:51:10.291Z,14.33
2019-04-04T11:53:54.093Z,32.07
2019-04-04T11:56:34.738Z,15.70
2019-04-04T11:59:15.635Z,18.50
2019-04-04T12:01:57.314Z,17.83
2019-04-04T12:04:38.035Z,15.13
2019-04-04T12:07:18.633Z,16.17
2019-04-04T12:10:07.258Z,16.17
2019-04-04T12:12:29.631Z,16.43
2019-04-04T12:15:17.526Z,14.27
2019-04-04T12:18:05.297Z,15.67
2019-04-04T12:20:33.762Z,14.97
2019-04-04T12:23:21.536Z,16.23
2019-04-04T12:26:11.078Z,15.97
2019-04-04T12:28:39.514Z,15.97
2019-04-04T12:31:27.328Z,16.40
2019-04-04T12:34:15.099Z,15.97
2019-04-04T12:37:03.159Z,16.23
2019-04-04T12:39:31.590Z,15.97
2019-04-04T12:42:19.519Z,16.40
2019-04-04T12:45:07.963Z,15.00
2019-04-04T12:47:55.762Z,14.00
2019-04-04T12:50:43.802Z,14.33
2019-04-04T12:53:32.837Z,15.30
2019-04-04T12:56:21.366Z,14.77
2019-04-04T12:59:09.162Z,14.77
2019-04-04T13:01:56.946Z,15.50
2019-04-04T13:04:44.823Z,13.50
2019-04-04T13:07:32.601Z,14.87
2019-04-04T13:10:32.043Z,15.73
2019-04-04T13:13:09.976Z,15.27
2019-04-04T13:15:57.835Z,16.90
2019-04-04T13:18:45.617Z,16.17
2019-04-04T13:21:26.356Z,14.97
2019-04-04T13:24:07.309Z,35.40
2019-04-04T13:26:47.961Z,30.50
2019-04-04T13:29:16.394Z,15.77
2019-04-04T13:34:59.741Z,15.73
2019-04-04T13:37:48.123Z,16.63
2019-04-04T13:43:04.211Z,16.97
2019-04-04T13:45:54.852Z,17.60
2019-04-04T13:48:43.633Z,17.93
2019-04-04T13:51:12.793Z,18.37
2019-04-04T13:54:00.668Z,19.80
2019-04-04T13:56:48.530Z,18.23
2019-04-04T13:59:36.658Z,19.57
2019-04-04T14:02:24.898Z,18.93
2019-04-04T14:05:14.419Z,15.63
2019-04-04T14:08:02.265Z,16.33
2019-04-04T14:10:58.120Z,15.40
2019-04-04T14:13:39.605Z,16.37
2019-04-04T14:16:27.422Z,17.80
2019-04-04T14:19:15.213Z,17.40
2019-04-04T14:22:03.054Z,15.53
2019-04-04T14:24:31.546Z,18.73
2019-04-04T14:27:12.409Z,18.07
2019-04-04T14:29:55.167Z,16.97
2019-04-04T14:32:35.503Z,17.20
2019-04-04T14:35:44.013Z,16.87
2019-04-04T14:38:31.804Z,16.83
2019-04-04T14:41:19.882Z,16.57
2019-04-04T14:44:07.691Z,16.33
2019-04-04T14:46:55.531Z,17.17
2019-04-04T14:49:45.801Z,18.27
2019-04-04T14:52:32.845Z,17.47
2019-04-04T14:55:01.348Z,18.30
2019-04-04T14:57:49.175Z,19.07
2019-04-04T15:00:36.943Z,21.07
2019-04-04T15:03:24.772Z,18.47
2019-04-04T15:06:12.858Z,18.50
2019-04-04T15:09:01.022Z,25.60
2019-04-04T15:11:49.142Z,19.87
2019-04-04T15:14:37.276Z,21.90
2019-04-04T15:17:05.783Z,21.53
2019-04-04T15:19:34.265Z,20.37
2019-04-04T15:22:22.051Z,18.87
2019-04-04T15:25:09.917Z,19.70
2019-04-04T15:27:57.713Z,18.77
2019-04-04T15:30:38.950Z,18.90
2019-04-04T15:33:07.402Z,19.33
2019-04-04T15:35:55.207Z,12.83
2019-04-04T15:38:42.969Z,17.50
2019-04-04T15:41:36.783Z,16.77
2019-04-04T15:44:20.549Z,17.80
2019-04-04T15:47:08.354Z,16.60
2019-04-04T15:49:56.498Z,20.17
2019-04-04T15:52:44.293Z,20.83
2019-04-04T15:55:32.073Z,22.03
2019-04-04T15:58:19.889Z,22.57
2019-04-04T16:01:07.694Z,21.40
2019-04-04T16:03:36.197Z,20.43
2019-04-04T16:06:24.019Z,19.50
2019-04-04T16:09:11.954Z,21.67
2019-04-04T16:11:59.772Z,23.33
2019-04-04T16:15:07.046Z,24.90
2019-04-04T16:17:54.822Z,25.63
2019-04-04T16:20:35.426Z,24.53
2019-04-04T16:23:03.919Z,24.97
2019-04-04T16:25:51.690Z,24.90
2019-04-04T16:28:39.566Z,24.30
2019-04-04T16:31:27.470Z,24.60
2019-04-04T16:34:15.278Z,24.07
2019-04-04T16:37:03.142Z,21.77
2019-04-04T16:39:50.941Z,21.23
2019-04-04T16:42:31.914Z,19.40
2019-04-04T16:45:12.951Z,20.67
2019-04-04T16:47:53.923Z,20.27
2019-04-04T16:50:34.987Z,19.43
2019-04-04T16:53:03.541Z,21.23
2019-04-04T16:55:51.337Z,22.73
2019-04-04T16:58:58.467Z,22.47
2019-04-04T17:01:46.657Z,20.53
2019-04-04T17:04:34.413Z,21.63
2019-04-04T17:07:22.209Z,22.10
2019-04-04T17:10:10.662Z,22.00
2019-04-04T17:12:58.572Z,23.00
2019-04-04T17:15:46.398Z,21.70
2019-04-04T17:18:34.231Z,20.77
2019-04-04T17:21:22.038Z,20.47
2019-04-04T17:24:09.872Z,19.00
2019-04-04T17:26:50.592Z,15.20
2019-04-04T17:29:31.304Z,13.57
2019-04-04T17:32:12.204Z,12.10
2019-04-04T17:34:53.014Z,11.73
2019-04-04T17:37:33.967Z,11.83
2019-04-04T17:40:14.704Z,12.33
2019-04-04T17:42:56.227Z,12.20
2019-04-04T17:45:37.245Z,11.60
2019-04-04T17:48:18.119Z,11.60
2019-04-04T17:50:59.743Z,11.00
2019-04-04T17:53:40.169Z,12.10
2019-04-04T17:56:21.223Z,11.13
2019-04-04T17:59:02.061Z,11.33
2019-04-04T18:01:42.857Z,9.93
2019-04-04T18:04:23.905Z,11.40
2019-04-04T18:07:04.885Z,10.73
2019-04-04T18:09:45.978Z,11.43
2019-04-04T18:12:34.683Z,9.87
2019-04-04T18:15:09.941Z,14.13
2019-04-04T18:17:50.214Z,11.63
2019-04-04T18:20:35.682Z,11.37
2019-04-04T18:23:04.214Z,12.00
2019-04-04T18:25:52.079Z,10.73
2019-04-04T18:28:39.874Z,10.03
2019-04-04T18:31:27.722Z,10.33
2019-04-04T18:34:15.581Z,11.50
2019-04-04T18:37:03.706Z,11.30
2019-04-04T18:39:51.585Z,12.23
2019-04-04T18:42:52.211Z,15.77
2019-04-04T18:45:28.922Z,11.43
2019-04-04T18:48:16.717Z,10.63
2019-04-04T18:51:04.488Z,11.23
2019-04-04T18:53:52.397Z,11.23
2019-04-04T18:56:40.209Z,10.40
2019-04-04T18:59:28.013Z,11.47
2019-04-04T19:02:15.819Z,10.63
2019-04-04T19:05:04.840Z,10.53
2019-04-04T19:07:52.893Z,13.07
2019-04-04T19:10:40.874Z,12.30
2019-04-04T19:13:28.836Z,12.00
2019-04-04T19:16:10.394Z,10.50
2019-04-04T19:18:51.297Z,11.10
2019-04-04T19:21:32.331Z,10.83
2019-04-04T19:24:00.768Z,13.27
2019-04-04T19:26:48.558Z,10.37
2019-04-04T19:29:36.358Z,12.93
2019-04-04T19:32:17.424Z,11.37
2019-04-04T19:34:58.707Z,10.97
2019-04-04T19:37:27.158Z,10.80
2019-04-04T19:40:15.096Z,11.00
2019-04-04T19:43:02.940Z,10.73
2019-04-04T19:45:51.145Z,10.70
2019-04-04T19:48:39.490Z,11.17
2019-04-04T19:51:27.357Z,10.63
2019-04-04T19:54:15.235Z,10.80
2019-04-04T19:57:03.158Z,10.70
2019-04-04T19:59:31.957Z,10.97
2019-04-04T20:02:32.874Z,10.70
2019-04-04T20:05:09.407Z,11.53
2019-04-04T20:07:37.897Z,10.57
2019-04-04T20:10:25.701Z,11.17
2019-04-04T20:13:13.482Z,12.23
2019-04-04T20:16:01.277Z,12.53
2019-04-04T20:18:49.090Z,12.03
2019-04-04T20:21:36.862Z,12.27
2019-04-04T20:24:24.695Z,12.17
2019-04-04T20:27:12.494Z,12.70
2019-04-04T20:29:53.140Z,11.43
2019-04-04T20:32:34.180Z,6.30
2019-04-04T20:35:14.969Z,12.63
2019-04-04T20:37:55.619Z,9.93
2019-04-04T20:40:36.496Z,3.80
2019-04-04T20:43:17.672Z,3.23
2019-04-04T20:45:58.062Z,4.87
2019-04-04T20:48:38.800Z,8.37
2019-04-04T20:51:19.625Z,13.17
2019-04-04T20:54:00.311Z,13.83
2019-04-04T20:56:29.014Z,13.07
2019-04-04T20:59:16.898Z,14.43
2019-04-04T21:02:04.702Z,13.03
2019-04-04T21:04:54.376Z,15.10
2019-04-04T21:07:41.699Z,13.67
2019-04-04T21:10:29.515Z,16.10
2019-04-04T21:13:17.355Z,15.50
2019-04-04T21:16:05.185Z,15.33
2019-04-04T21:18:33.974Z,16.40
2019-04-04T21:21:21.790Z,16.73
2019-04-04T21:24:09.642Z,15.40
2019-04-04T21:26:57.414Z,16.53
2019-04-04T21:29:38.230Z,16.27
2019-04-04T21:32:18.829Z,17.63
2019-04-04T21:35:00.293Z,16.67
2019-04-04T21:37:40.659Z,17.00
2019-04-04T21:40:21.671Z,9.17
2019-04-04T21:43:02.726Z,17.27
2019-04-04T21:45:31.162Z,16.73
2019-04-04T21:48:19.215Z,17.57
2019-04-04T21:51:07.028Z,17.97
2019-04-04T21:53:54.810Z,17.87
2019-04-04T21:56:42.619Z,18.97
2019-04-04T21:59:30.429Z,20.33
2019-04-04T22:02:18.281Z,18.40
2019-04-04T22:05:26.802Z,19.10
2019-04-04T22:08:14.596Z,19.73
2019-04-04T22:11:02.482Z,19.73
2019-04-04T22:13:50.270Z,21.40
2019-04-04T22:16:18.717Z,21.23
2019-04-04T22:19:06.495Z,21.30
2019-04-04T22:21:54.289Z,22.50
2019-04-04T22:24:42.339Z,18.40
2019-04-04T22:27:30.466Z,20.20
2019-04-04T22:30:11.031Z,20.97
2019-04-04T22:32:51.987Z,21.87
2019-04-04T22:35:32.861Z,21.00
2019-04-04T22:38:13.374Z,21.50
2019-04-04T22:40:54.461Z,20.17
2019-04-04T22:43:35.167Z,21.23
2019-04-04T22:46:03.701Z,19.77
2019-04-04T22:48:51.473Z,20.10
2019-04-04T22:51:39.274Z,20.63
2019-04-04T22:54:27.045Z,18.83
2019-04-04T22:57:14.851Z,19.27
2019-04-04T23:00:02.685Z,19.67
2019-04-04T23:02:50.891Z,19.83
2019-04-04T23:05:38.667Z,14.40
2019-04-04T23:08:26.466Z,15.77
2019-04-04T23:11:14.271Z,21.43
2019-04-04T23:14:02.187Z,22.77
2019-04-04T23:16:49.978Z,22.67
2019-04-04T23:19:37.751Z,8.97
2019-04-04T23:22:25.550Z,23.80
2019-04-04T23:25:13.323Z,11.33
2019-04-04T23:28:01.117Z,26.07
2019-04-04T23:30:48.886Z,9.13
2019-04-04T23:33:36.830Z,27.70
2019-04-04T23:36:34.439Z,7.03
2019-04-04T23:39:14.142Z,6.93
2019-04-04T23:41:42.961Z,28.13
2019-04-04T23:44:30.762Z,29.10
2019-04-04T23:47:18.548Z,26.83
2019-04-04T23:50:06.501Z,29.53
2019-04-04T23:52:35.275Z,25.07
2019-04-04T23:55:43.802Z,31.87
2019-04-04T23:58:31.645Z,32.13
